DETSM EDLW-EDLW

Flight info

Callsign DETSM
Flight time 0h 8m
Altitude
Route
Aircraft C172

Departure

Time 2026-05-04 20:24
Airport Dortmund Airport (EDLW)

Arrival

Time 2026-05-04 20:33
Airport Dortmund Airport (EDLW)
Time Latitude Longitude Altitude Speed Heading
2026-05-04 20:19 51.51197 7.60399 403 ft 0 kts 196°
2026-05-04 20:19 51.51195 7.60397 398 ft 3 kts 223°
2026-05-04 20:19 51.51177 7.60288 423 ft 17 kts 249°
2026-05-04 20:19 51.51185 7.60163 425 ft 13 kts 24°
2026-05-04 20:20 51.51233 7.60270 425 ft 11 kts 56°
2026-05-04 20:20 51.51272 7.60378 420 ft 14 kts 59°
2026-05-04 20:20 51.51329 7.60541 423 ft 20 kts 60°
2026-05-04 20:20 51.51405 7.60757 421 ft 24 kts 59°
2026-05-04 20:21 51.51483 7.60978 415 ft 22 kts 61°
2026-05-04 20:21 51.51598 7.61109 416 ft 19 kts 43°
2026-05-04 20:21 51.51719 7.61444 414 ft 16 kts 60°
2026-05-04 20:22 51.51785 7.61626 413 ft 22 kts 59°
2026-05-04 20:22 51.51862 7.61850 411 ft 22 kts 61°
2026-05-04 20:22 51.51936 7.62055 409 ft 21 kts 61°
2026-05-04 20:22 51.52014 7.62280 407 ft 23 kts 61°
2026-05-04 20:23 51.52126 7.62362 405 ft 11 kts 329°
2026-05-04 20:23 51.52131 7.62356 406 ft 0 kts 329°
2026-05-04 20:23 51.52183 7.62280 407 ft 19 kts 290°
2026-05-04 20:23 51.52080 7.61938 410 ft 57 kts 242°
2026-05-04 20:24 51.51845 7.61262 524 ft 74 kts 237°
2026-05-04 20:24 51.51567 7.60533 735 ft 79 kts 237°
2026-05-04 20:24 51.51262 7.59795 1005 ft 77 kts 230°
2026-05-04 20:24 51.50856 7.59380 1309 ft 73 kts 169°
2026-05-04 20:25 51.50362 7.59797 1520 ft 89 kts 144°
2026-05-04 20:25 51.49959 7.60637 1727 ft 103 kts 113°
2026-05-04 20:25 51.50057 7.61881 1735 ft 126 kts 71°
2026-05-04 20:25 51.50469 7.63047 1678 ft 118 kts 61°
2026-05-04 20:26 51.50968 7.64154 1429 ft 132 kts 46°
2026-05-04 20:26 51.51657 7.64987 1487 ft 113 kts 49°
2026-05-04 20:26 51.52150 7.65944 1524 ft 106 kts 54°
2026-05-04 20:26 51.52649 7.66875 1536 ft 107 kts 47°
2026-05-04 20:27 51.53236 7.67456 1638 ft 104 kts 338°
2026-05-04 20:27 51.53503 7.66566 1571 ft 101 kts 262°
2026-05-04 20:27 51.53165 7.65339 1024 ft 124 kts 244°
2026-05-04 20:27 51.52856 7.64187 760 ft 102 kts 247°
2026-05-04 20:28 51.52543 7.63273 590 ft 89 kts 237°
2026-05-04 20:28 51.52267 7.62471 433 ft 70 kts 239°
2026-05-04 20:28 51.52048 7.61895 421 ft 61 kts 237°
2026-05-04 20:28 51.51811 7.61197 530 ft 77 kts 240°
2026-05-04 20:29 51.51539 7.60420 786 ft 76 kts 237°
2026-05-04 20:29 51.51251 7.59716 1053 ft 77 kts 230°
2026-05-04 20:29 51.50921 7.59027 1292 ft 86 kts 240°
2026-05-04 20:29 51.50473 7.58715 1507 ft 83 kts 119°
2026-05-04 20:30 51.50415 7.59701 1601 ft 109 kts 66°
2026-05-04 20:30 51.50769 7.60639 1899 ft 85 kts 61°
2026-05-04 20:30 51.51058 7.61336 1644 ft 77 kts 44°
2026-05-04 20:30 51.51559 7.62348 1252 ft 128 kts 57°
2026-05-04 20:31 51.52058 7.63468 1415 ft 125 kts 55°
2026-05-04 20:31 51.52519 7.64784 1348 ft 135 kts 64°
2026-05-04 20:31 51.53149 7.65351 1532 ft 102 kts 304°
2026-05-04 20:31 51.53110 7.64484 1298 ft 94 kts 204°
2026-05-04 20:32 51.52688 7.63667 943 ft 98 kts 236°
2026-05-04 20:32 51.52370 7.62825 620 ft 76 kts 222°
2026-05-04 20:32 51.52154 7.62141 456 ft 68 kts 239°
2026-05-04 20:32 51.51940 7.61554 413 ft 51 kts 236°
2026-05-04 20:33 51.51805 7.61167 415 ft 32 kts 243°
2026-05-04 20:33 51.51696 7.60841 420 ft 37 kts 240°
2026-05-04 20:33 51.51593 7.60617 421 ft 14 kts 197°
2026-05-04 20:33 51.51531 7.60706 421 ft 19 kts 85°
2026-05-04 20:34 51.51569 7.60997 414 ft 30 kts 103°
2026-05-04 20:34 51.51525 7.61123 418 ft 13 kts 242°
2026-05-04 20:34 51.51405 7.60760 414 ft 53 kts 240°
2026-05-04 20:34 51.51249 7.60315 425 ft 38 kts 241°
2026-05-04 20:35 51.51164 7.60175 420 ft 12 kts 96°
2026-05-04 20:35 51.51090 7.60239 422 ft 8 kts 229°
2026-05-04 20:35 51.51088 7.60235 423 ft 0 kts 229°
2026-05-04 20:35 51.51080 7.60246 425 ft 8 kts 62°
2026-05-04 20:36 51.51181 7.60164 425 ft 22 kts 358°
2026-05-04 20:36 51.51313 7.60496 423 ft 58 kts 61°
2026-05-04 20:36 51.51409 7.60894 420 ft 25 kts 103°
2026-05-04 20:36 51.51369 7.60932 420 ft 0 kts 235°